Time;durP1;ratioP1;P1;durP2;ratioP2;P2;SDS_P1;SDS_P2;PMS_P1;PMS_P2;Temp;Humidity;BMP_temperature;BMP_pressure;BME280_temperature;BME280_humidity;BME280_pressure;Samples;Min_cycle;Max_cycle;Signal;HPM_P1;HPM_P2
2022/03/08 00:00:36;;;;;;;21.45;14.70;;;9.90;66.10;;;;;;5030401;28;20116;-77
2022/03/08 00:03:03;;;;;;;20.52;13.82;;;9.90;66.20;;;;;;5029807;28;20072;-76
2022/03/08 00:05:28;;;;;;;20.75;13.55;;;9.90;66.20;;;;;;5027671;28;20022;-76
2022/03/08 00:07:55;;;;;;;19.42;13.82;;;9.90;66.20;;;;;;5030211;28;20036;-78
2022/03/08 00:10:20;;;;;;;19.73;12.70;;;9.90;66.10;;;;;;5028183;28;20029;-77
2022/03/08 00:12:47;;;;;;;18.73;13.35;;;9.90;66.10;;;;;;5029024;28;20025;-76
2022/03/08 00:15:24;;;;;;;19.88;14.10;;;9.90;66.10;;;;;;5028872;28;20083;-78
2022/03/08 00:17:50;;;;;;;20.55;14.35;;;9.90;66.10;;;;;;5028855;28;20112;-76
2022/03/08 00:20:16;;;;;;;19.20;13.60;;;9.90;66.20;;;;;;5029176;28;20017;-75
2022/03/08 00:22:42;;;;;;;23.00;13.63;;;9.90;66.20;;;;;;5028666;28;20074;-77
2022/03/08 00:25:09;;;;;;;19.45;13.68;;;9.90;66.10;;;;;;5028580;28;20050;-76
2022/03/08 00:27:35;;;;;;;32.88;14.75;;;9.90;66.10;;;;;;5028729;28;20075;-77
2022/03/08 00:30:00;;;;;;;29.42;13.77;;;9.90;66.20;;;;;;5028059;28;20014;-77
2022/03/08 00:32:26;;;;;;;22.35;13.30;;;9.90;66.10;;;;;;5029728;28;20022;-75
2022/03/08 00:34:52;;;;;;;18.35;13.25;;;9.90;66.40;;;;;;5028458;28;20071;-76
2022/03/08 00:37:17;;;;;;;17.92;12.65;;;9.90;66.10;;;;;;5028145;28;20040;-76
2022/03/08 00:39:43;;;;;;;20.85;13.63;;;9.90;66.00;;;;;;5028308;28;20033;-77
2022/03/08 00:42:11;;;;;;;20.60;12.55;;;9.90;65.90;;;;;;5027117;28;20037;-78
2022/03/08 00:44:38;;;;;;;18.50;12.82;;;9.90;65.90;;;;;;5027860;28;20036;-76
2022/03/08 00:47:05;;;;;;;19.83;13.02;;;9.90;65.90;;;;;;5029042;28;20345;-75
2022/03/08 00:49:30;;;;;;;19.08;13.18;;;9.90;65.90;;;;;;5027873;28;20514;-76
2022/03/08 00:51:56;;;;;;;18.45;12.75;;;9.90;65.90;;;;;;5028056;28;20048;-76
2022/03/08 00:54:22;;;;;;;19.02;13.07;;;9.90;66.00;;;;;;5028526;28;20040;-76
2022/03/08 00:56:48;;;;;;;17.25;12.25;;;9.90;66.00;;;;;;5040159;28;20662;-76
2022/03/08 00:59:13;;;;;;;17.88;12.88;;;9.90;66.00;;;;;;5047527;28;20043;-75
2022/03/08 01:01:39;;;;;;;18.98;12.00;;;9.80;66.00;;;;;;5047727;28;20539;-77
2022/03/08 01:04:05;;;;;;;17.88;12.57;;;9.90;66.10;;;;;;5030194;28;20501;-75
2022/03/08 01:06:31;;;;;;;20.13;13.35;;;9.80;66.20;;;;;;5027480;28;20021;-76
2022/03/08 01:08:57;;;;;;;23.90;12.82;;;9.90;66.20;;;;;;5028671;28;20033;-76
2022/03/08 01:11:22;;;;;;;20.42;12.98;;;9.90;66.20;;;;;;5027518;28;20467;-77
2022/03/08 01:13:48;;;;;;;16.13;12.27;;;9.90;66.20;;;;;;5028949;28;20036;-76
2022/03/08 01:16:13;;;;;;;16.75;13.30;;;9.80;66.10;;;;;;5027191;28;20516;-76
2022/03/08 01:18:39;;;;;;;16.83;12.15;;;9.80;66.20;;;;;;5028579;28;20073;-76
2022/03/08 01:21:05;;;;;;;17.60;12.27;;;9.80;66.30;;;;;;5026439;28;20022;-75
2022/03/08 01:23:30;;;;;;;18.30;13.00;;;9.80;66.20;;;;;;5027908;28;20132;-76
2022/03/08 01:25:56;;;;;;;19.17;13.00;;;9.80;66.20;;;;;;5028508;28;20079;-77
2022/03/08 01:28:21;;;;;;;20.77;12.73;;;9.80;66.20;;;;;;5026818;28;20033;-76
2022/03/08 01:30:47;;;;;;;18.00;12.73;;;9.90;66.30;;;;;;5026815;28;20022;-77
2022/03/08 01:33:13;;;;;;;19.33;12.55;;;9.80;66.30;;;;;;5028029;28;20625;-76
2022/03/08 01:35:38;;;;;;;18.80;13.00;;;9.80;66.30;;;;;;5028468;28;20029;-75
2022/03/08 01:38:04;;;;;;;17.00;12.60;;;9.80;66.90;;;;;;5026711;28;20025;-76
2022/03/08 01:40:29;;;;;;;17.52;12.75;;;9.80;66.40;;;;;;5027082;28;20026;-76
2022/03/08 01:42:55;;;;;;;20.05;14.00;;;9.80;66.40;;;;;;5026776;28;20422;-75
2022/03/08 01:45:23;;;;;;;17.75;13.45;;;9.80;66.40;;;;;;5028056;28;20053;-77
2022/03/08 01:47:49;;;;;;;17.55;13.23;;;9.80;66.40;;;;;;5028267;28;20052;-76
2022/03/08 01:50:16;;;;;;;17.35;13.20;;;9.80;66.40;;;;;;5026116;28;20036;-76
2022/03/08 01:52:42;;;;;;;19.10;12.63;;;9.80;66.40;;;;;;5027580;28;20096;-76
2022/03/08 01:55:10;;;;;;;20.30;14.00;;;9.80;66.40;;;;;;5026524;28;20034;-76
2022/03/08 01:57:36;;;;;;;17.35;12.45;;;9.80;66.50;;;;;;5027927;28;20438;-77
2022/03/08 02:00:06;;;;;;;17.45;12.63;;;9.80;66.40;;;;;;5027587;28;20025;-77
2022/03/08 02:02:31;;;;;;;16.33;12.70;;;9.80;66.40;;;;;;5026205;28;20017;-75
2022/03/08 02:04:57;;;;;;;18.20;12.55;;;9.80;66.50;;;;;;5027699;28;20037;-77
2022/03/08 02:07:24;;;;;;;19.52;12.88;;;9.80;66.50;;;;;;5026287;28;20033;-77
2022/03/08 02:09:49;;;;;;;18.45;13.27;;;9.80;66.50;;;;;;5027586;28;20033;-76
2022/03/08 02:12:15;;;;;;;17.50;13.50;;;9.80;66.50;;;;;;5026304;28;20022;-76
2022/03/08 02:14:42;;;;;;;16.30;12.27;;;9.80;66.50;;;;;;5027729;28;20116;-78
2022/03/08 02:17:08;;;;;;;16.35;12.98;;;9.80;66.50;;;;;;5026071;28;20049;-76
2022/03/08 02:19:33;;;;;;;15.38;12.60;;;9.80;66.50;;;;;;5027460;28;20033;-75
2022/03/08 02:21:59;;;;;;;17.05;13.10;;;9.80;66.50;;;;;;5027648;28;20052;-76
2022/03/08 02:24:24;;;;;;;18.02;13.27;;;9.80;66.60;;;;;;5026787;28;20359;-76
2022/03/08 02:26:51;;;;;;;16.70;12.77;;;9.80;66.60;;;;;;5027043;28;20048;-76
2022/03/08 02:29:17;;;;;;;16.67;12.30;;;9.80;66.60;;;;;;5026704;28;20021;-75
2022/03/08 02:31:42;;;;;;;17.02;12.95;;;9.80;66.60;;;;;;5027326;28;20072;-75
2022/03/08 02:34:08;;;;;;;18.27;13.07;;;9.80;66.50;;;;;;5025983;28;20482;-75
2022/03/08 02:36:35;;;;;;;20.63;13.60;;;9.80;66.40;;;;;;5027436;28;20032;-77
2022/03/08 02:39:00;;;;;;;23.00;14.13;;;9.80;66.40;;;;;;5025589;28;20390;-76
2022/03/08 02:41:26;;;;;;;25.40;15.52;;;9.80;66.40;;;;;;5025661;28;20031;-76
2022/03/08 02:43:51;;;;;;;24.25;15.40;;;9.80;66.40;;;;;;5025852;28;20437;-76
2022/03/08 02:46:17;;;;;;;23.90;15.13;;;9.80;66.40;;;;;;5025745;28;20022;-76
2022/03/08 02:48:42;;;;;;;26.73;16.98;;;9.80;66.60;;;;;;5026908;28;20048;-77
2022/03/08 02:51:08;;;;;;;27.33;17.20;;;9.80;66.40;;;;;;5026013;28;20529;-77
2022/03/08 02:53:34;;;;;;;33.25;18.90;;;9.80;66.40;;;;;;5032291;28;20017;-76
2022/03/08 02:55:59;;;;;;;38.38;20.33;;;9.80;66.50;;;;;;5027837;28;20038;-76
2022/03/08 02:58:25;;;;;;;42.83;22.50;;;9.80;66.50;;;;;;5025731;28;20056;-76
2022/03/08 03:00:51;;;;;;;43.05;22.88;;;9.80;66.40;;;;;;5025606;28;20040;-75
2022/03/08 03:03:17;;;;;;;45.65;23.80;;;9.70;66.40;;;;;;5026916;28;20029;-75
2022/03/08 03:05:42;;;;;;;38.60;22.67;;;9.70;66.90;;;;;;5025736;28;20044;-76
2022/03/08 03:08:08;;;;;;;44.25;23.38;;;9.70;66.40;;;;;;5026087;28;20022;-75
2022/03/08 03:10:34;;;;;;;42.05;21.60;;;9.70;66.40;;;;;;5026632;28;20398;-77
2022/03/08 03:13:00;;;;;;;38.67;21.88;;;9.70;66.40;;;;;;5025550;28;20030;-76
2022/03/08 03:15:28;;;;;;;35.80;20.45;;;9.70;66.40;;;;;;5025399;28;20036;-76
2022/03/08 03:17:54;;;;;;;38.10;21.33;;;9.70;66.40;;;;;;5025471;28;20037;-75
2022/03/08 03:20:22;;;;;;;40.10;21.60;;;9.70;66.40;;;;;;5024818;28;20029;-75
2022/03/08 03:22:48;;;;;;;33.83;20.15;;;9.70;66.50;;;;;;5025435;28;20142;-78
2022/03/08 03:25:15;;;;;;;68.43;22.52;;;9.70;66.50;;;;;;5025181;28;20487;-76
2022/03/08 03:27:41;;;;;;;35.10;19.95;;;9.70;66.40;;;;;;5025111;28;20459;-77
2022/03/08 03:30:13;;;;;;;36.15;19.90;;;9.70;66.40;;;;;;5025301;28;20486;-76
2022/03/08 03:32:39;;;;;;;45.45;20.73;;;9.70;66.40;;;;;;5022193;28;20567;-76
2022/03/08 03:35:06;;;;;;;45.08;20.25;;;9.70;66.50;;;;;;5024858;28;20032;-76
2022/03/08 03:37:32;;;;;;;38.03;18.58;;;9.70;66.50;;;;;;5024781;28;20037;-75
2022/03/08 03:39:58;;;;;;;36.10;19.73;;;9.70;66.50;;;;;;5027181;28;20040;-76
2022/03/08 03:42:24;;;;;;;29.67;18.10;;;9.70;66.50;;;;;;5029965;28;20029;-76
2022/03/08 03:44:49;;;;;;;33.10;19.05;;;9.70;66.50;;;;;;5030335;28;20029;-77
2022/03/08 03:47:15;;;;;;;30.38;18.75;;;9.70;66.50;;;;;;5028798;28;20120;-77
2022/03/08 03:49:40;;;;;;;31.30;17.88;;;9.70;66.40;;;;;;5028840;28;20687;-75
2022/03/08 03:52:06;;;;;;;30.00;17.65;;;9.70;66.50;;;;;;5028803;28;20021;-77
2022/03/08 03:54:32;;;;;;;33.30;18.40;;;9.70;66.40;;;;;;5028598;28;20029;-75
2022/03/08 03:56:57;;;;;;;29.58;17.92;;;9.70;66.40;;;;;;5029601;28;20404;-78
2022/03/08 03:59:23;;;;;;;29.10;17.60;;;9.70;67.00;;;;;;5029796;28;20041;-76
2022/03/08 04:01:48;;;;;;;29.85;18.15;;;9.70;66.40;;;;;;5028812;28;20036;-76
2022/03/08 04:04:14;;;;;;;30.92;18.45;;;9.70;66.40;;;;;;5029914;28;20025;-77
2022/03/08 04:06:39;;;;;;;30.27;17.70;;;9.70;66.40;;;;;;5029688;28;20040;-76
2022/03/08 04:09:05;;;;;;;35.92;18.00;;;9.70;66.40;;;;;;5028615;28;20027;-76
2022/03/08 04:11:31;;;;;;;27.60;17.40;;;9.70;66.40;;;;;;5029450;28;20024;-78
2022/03/08 04:13:57;;;;;;;82.35;20.20;;;9.70;66.40;;;;;;5028423;28;20029;-76
2022/03/08 04:16:23;;;;;;;91.82;20.02;;;9.70;66.60;;;;;;5028710;28;20033;-75
2022/03/08 04:18:48;;;;;;;51.53;18.90;;;9.70;66.60;;;;;;5029466;28;20465;-75
2022/03/08 04:21:14;;;;;;;34.63;17.05;;;9.70;66.70;;;;;;5027359;28;20036;-75
2022/03/08 04:23:39;;;;;;;27.20;17.23;;;9.60;66.50;;;;;;5029422;28;20033;-75
2022/03/08 04:26:06;;;;;;;25.73;15.68;;;9.70;66.50;;;;;;5029444;28;20025;-78
2022/03/08 04:28:31;;;;;;;27.73;18.00;;;9.70;66.50;;;;;;5027804;28;20021;-75
2022/03/08 04:30:57;;;;;;;28.52;17.08;;;9.70;66.50;;;;;;5027289;28;20037;-76
2022/03/08 04:33:22;;;;;;;25.27;15.85;;;9.70;66.50;;;;;;5028032;28;20030;-75
2022/03/08 04:35:48;;;;;;;26.73;16.90;;;9.60;66.50;;;;;;5027784;28;20087;-76
2022/03/08 04:38:14;;;;;;;24.92;16.83;;;9.70;66.50;;;;;;5028588;28;20032;-75
2022/03/08 04:40:39;;;;;;;27.30;17.83;;;9.70;66.50;;;;;;5026843;28;20040;-76
2022/03/08 04:43:05;;;;;;;26.63;16.33;;;9.60;66.30;;;;;;5027643;28;20033;-75
2022/03/08 04:45:30;;;;;;;24.27;16.55;;;9.70;66.40;;;;;;5027750;28;20025;-75
2022/03/08 04:47:56;;;;;;;25.95;16.42;;;9.60;66.30;;;;;;5028111;28;20059;-74
2022/03/08 04:50:22;;;;;;;25.70;16.42;;;9.60;66.30;;;;;;5025369;28;20034;-72
2022/03/08 04:52:49;;;;;;;21.77;15.48;;;9.60;66.30;;;;;;5028192;28;20025;-74
2022/03/08 04:55:15;;;;;;;23.25;16.38;;;9.60;66.30;;;;;;5026849;28;20045;-74
2022/03/08 04:57:41;;;;;;;24.20;16.25;;;9.70;66.40;;;;;;5025686;28;20025;-74
2022/03/08 05:00:11;;;;;;;23.27;15.55;;;9.60;66.40;;;;;;5025209;28;20391;-73
2022/03/08 05:02:38;;;;;;;25.52;15.52;;;9.60;66.30;;;;;;5027376;28;20025;-74
2022/03/08 05:05:04;;;;;;;21.20;15.82;;;9.60;66.40;;;;;;5026277;28;20029;-75
2022/03/08 05:07:29;;;;;;;22.20;16.33;;;9.60;66.40;;;;;;5027177;28;20083;-75
2022/03/08 05:09:55;;;;;;;21.15;15.48;;;9.60;66.40;;;;;;5025800;28;20115;-73
2022/03/08 05:12:20;;;;;;;22.48;15.57;;;9.60;66.30;;;;;;5026864;28;20040;-74
2022/03/08 05:14:46;;;;;;;20.30;15.20;;;9.60;66.30;;;;;;5025459;28;20075;-73
2022/03/08 05:17:11;;;;;;;22.30;15.45;;;9.60;66.30;;;;;;5025545;28;20544;-74
2022/03/08 05:19:37;;;;;;;20.48;15.02;;;9.60;66.30;;;;;;5025602;28;20901;-75
2022/03/08 05:22:03;;;;;;;22.00;16.10;;;9.60;66.40;;;;;;5024931;28;20258;-74
2022/03/08 05:24:28;;;;;;;21.58;15.30;;;9.60;66.20;;;;;;5025163;28;20030;-74
2022/03/08 05:26:54;;;;;;;22.17;16.58;;;9.60;66.30;;;;;;5025501;28;20032;-74
2022/03/08 05:29:19;;;;;;;22.80;16.00;;;9.60;66.30;;;;;;5025565;28;20497;-75
2022/03/08 05:31:45;;;;;;;22.95;15.15;;;9.60;66.30;;;;;;5024027;28;20029;-74
2022/03/08 05:34:10;;;;;;;22.90;15.85;;;9.60;66.30;;;;;;5025299;28;20041;-74
2022/03/08 05:36:37;;;;;;;21.02;15.07;;;9.60;66.30;;;;;;5017736;28;20017;-73
2022/03/08 05:39:04;;;;;;;22.85;15.88;;;9.60;66.20;;;;;;5006955;28;20038;-73
2022/03/08 05:41:29;;;;;;;21.70;15.95;;;9.60;66.30;;;;;;5018390;28;20033;-75
2022/03/08 05:43:55;;;;;;;20.83;15.70;;;9.60;66.20;;;;;;5026199;28;20036;-74
2022/03/08 05:46:20;;;;;;;22.02;15.82;;;9.60;66.20;;;;;;5021992;28;20075;-75
2022/03/08 05:48:46;;;;;;;22.38;15.90;;;9.60;66.10;;;;;;5026706;28;20045;-74
2022/03/08 05:51:11;;;;;;;20.92;16.25;;;9.60;66.10;;;;;;5026784;28;20533;-74
2022/03/08 05:53:37;;;;;;;23.85;16.58;;;9.60;66.10;;;;;;5027772;28;20029;-74
2022/03/08 05:56:02;;;;;;;25.40;17.08;;;9.60;66.10;;;;;;5027874;28;20518;-73
2022/03/08 05:58:28;;;;;;;21.33;16.67;;;9.60;66.10;;;;;;5026269;28;20053;-73
2022/03/08 06:00:54;;;;;;;22.02;16.48;;;9.60;66.20;;;;;;5021354;28;20085;-75
2022/03/08 06:03:19;;;;;;;21.52;16.63;;;9.60;66.20;;;;;;5011510;28;20026;-76
2022/03/08 06:05:45;;;;;;;22.48;16.98;;;9.50;66.00;;;;;;5019668;28;20450;-75
2022/03/08 06:08:10;;;;;;;21.58;16.55;;;9.60;66.10;;;;;;5027449;28;20552;-73
2022/03/08 06:10:36;;;;;;;22.77;17.73;;;9.60;66.00;;;;;;5027040;28;20159;-75
2022/03/08 06:13:02;;;;;;;21.90;17.42;;;9.60;66.00;;;;;;5027555;28;20030;-75
2022/03/08 06:15:27;;;;;;;20.65;16.65;;;9.60;65.70;;;;;;5045181;28;20030;-74
2022/03/08 06:17:53;;;;;;;21.85;17.27;;;9.50;64.10;;;;;;5026741;28;20868;-77
2022/03/08 06:20:19;;;;;;;23.77;17.20;;;9.50;64.60;;;;;;5024510;28;20033;-73
2022/03/08 06:22:45;;;;;;;63.05;19.65;;;9.60;65.00;;;;;;5026452;28;20030;-72
2022/03/08 06:25:11;;;;;;;62.17;19.80;;;9.60;65.30;;;;;;5022161;28;20067;-74
2022/03/08 06:27:36;;;;;;;40.05;18.30;;;9.60;65.30;;;;;;5025071;28;20022;-73
2022/03/08 06:30:04;;;;;;;33.75;17.17;;;9.60;65.30;;;;;;5025114;28;20029;-72
2022/03/08 06:32:29;;;;;;;26.27;18.08;;;9.60;65.40;;;;;;5041800;28;20025;-74
2022/03/08 06:34:55;;;;;;;26.42;16.80;;;9.60;65.30;;;;;;5026657;28;20112;-74
2022/03/08 06:37:20;;;;;;;28.65;16.85;;;9.70;65.40;;;;;;5026959;28;20060;-73
2022/03/08 06:39:46;;;;;;;24.15;16.70;;;9.60;65.30;;;;;;5020158;28;20013;-74
2022/03/08 06:42:12;;;;;;;26.83;17.25;;;9.70;65.30;;;;;;5027123;28;20582;-74
2022/03/08 06:44:40;;;;;;;26.45;17.15;;;9.70;63.90;;;;;;5023559;28;20028;-74
2022/03/08 06:47:08;;;;;;;25.45;16.65;;;9.60;64.20;;;;;;5025881;28;20928;-74
2022/03/08 06:49:34;;;;;;;26.98;16.40;;;9.70;64.50;;;;;;5025424;28;20040;-74
2022/03/08 06:51:59;;;;;;;23.08;16.25;;;9.70;64.70;;;;;;5024770;28;20387;-74
2022/03/08 06:54:25;;;;;;;22.77;15.98;;;9.70;64.80;;;;;;5025169;28;20045;-73
2022/03/08 06:56:50;;;;;;;22.40;15.93;;;9.70;64.90;;;;;;5025570;28;20037;-74
2022/03/08 06:59:17;;;;;;;25.50;15.98;;;9.80;64.80;;;;;;5026481;28;20033;-74
2022/03/08 07:01:42;;;;;;;22.92;16.45;;;9.80;64.90;;;;;;5027016;28;20679;-74
2022/03/08 07:04:08;;;;;;;27.40;17.90;;;9.80;64.90;;;;;;5027344;28;20033;-74
2022/03/08 07:06:33;;;;;;;20.50;16.00;;;9.80;64.80;;;;;;5041990;28;20029;-74
2022/03/08 07:08:59;;;;;;;23.45;16.08;;;9.90;64.80;;;;;;5042107;28;20470;-73
2022/03/08 07:11:25;;;;;;;21.63;16.45;;;9.90;64.70;;;;;;5026296;28;20022;-73
2022/03/08 07:13:50;;;;;;;20.45;15.60;;;10.00;64.70;;;;;;5027927;28;20033;-74
2022/03/08 07:16:16;;;;;;;21.23;15.48;;;10.00;64.60;;;;;;5030804;28;20032;-74
2022/03/08 07:18:42;;;;;;;20.33;16.05;;;10.00;64.50;;;;;;5031224;28;20037;-75
2022/03/08 07:21:07;;;;;;;22.92;16.35;;;10.00;64.50;;;;;;5030431;28;20037;-74
2022/03/08 07:23:33;;;;;;;23.08;16.88;;;10.10;64.50;;;;;;5031307;28;20051;-74
2022/03/08 07:25:58;;;;;;;21.88;16.85;;;10.10;64.50;;;;;;5046203;28;20025;-74
2022/03/08 07:28:24;;;;;;;20.50;16.02;;;10.10;64.50;;;;;;5046259;28;20025;-74
2022/03/08 07:30:50;;;;;;;21.60;16.13;;;10.10;64.50;;;;;;5044514;28;20021;-74
2022/03/08 07:33:15;;;;;;;21.17;16.15;;;10.20;64.70;;;;;;5027230;28;20128;-74
2022/03/08 07:35:41;;;;;;;20.67;16.10;;;10.20;64.70;;;;;;5029423;28;20505;-74
2022/03/08 07:38:06;;;;;;;22.30;16.35;;;10.30;64.80;;;;;;5030752;28;20450;-75
2022/03/08 07:40:32;;;;;;;22.83;15.73;;;10.30;64.80;;;;;;5028939;28;20036;-74
2022/03/08 07:42:58;;;;;;;21.30;15.77;;;10.30;64.90;;;;;;5046016;28;20116;-74
2022/03/08 07:45:24;;;;;;;21.23;16.15;;;10.30;64.90;;;;;;5046112;28;20052;-74
2022/03/08 07:47:50;;;;;;;20.30;15.60;;;10.30;64.90;;;;;;5029703;28;20064;-74
2022/03/08 07:50:15;;;;;;;20.35;15.57;;;10.40;65.00;;;;;;5028480;28;20034;-75
2022/03/08 07:52:41;;;;;;;18.10;15.13;;;10.40;65.00;;;;;;5048001;28;20024;-75
2022/03/08 07:55:08;;;;;;;20.30;15.30;;;10.40;65.00;;;;;;5049300;28;20043;-75
2022/03/08 07:57:33;;;;;;;20.65;16.50;;;10.40;65.10;;;;;;5049964;28;20630;-75
2022/03/08 07:59:59;;;;;;;21.90;15.77;;;10.50;65.00;;;;;;5049911;28;20030;-74
2022/03/08 08:02:24;;;;;;;24.58;15.50;;;10.50;65.00;;;;;;5034832;28;20025;-74
2022/03/08 08:04:51;;;;;;;21.15;14.63;;;10.50;65.10;;;;;;5050055;28;20028;-74
2022/03/08 08:07:17;;;;;;;19.98;15.23;;;10.50;65.00;;;;;;5049544;28;20057;-75
2022/03/08 08:09:43;;;;;;;20.73;14.27;;;10.60;65.00;;;;;;5049914;28;20083;-75
2022/03/08 08:12:08;;;;;;;18.30;15.10;;;10.60;65.10;;;;;;5049818;28;20049;-75
2022/03/08 08:14:34;;;;;;;18.20;15.07;;;10.60;65.70;;;;;;5049961;28;20051;-75
2022/03/08 08:16:59;;;;;;;19.38;15.25;;;10.70;65.30;;;;;;5034539;28;20029;-75
2022/03/08 08:19:25;;;;;;;18.95;14.77;;;10.60;65.90;;;;;;5034072;28;20034;-74
2022/03/08 08:21:51;;;;;;;19.80;14.68;;;10.70;65.40;;;;;;5034474;28;20028;-74
2022/03/08 08:24:17;;;;;;;18.25;14.40;;;10.70;65.40;;;;;;5034282;28;20030;-74
2022/03/08 08:26:42;;;;;;;20.60;15.18;;;10.70;65.30;;;;;;5048556;28;20112;-75
2022/03/08 08:29:08;;;;;;;18.08;14.52;;;10.80;65.40;;;;;;5048989;28;20022;-73
2022/03/08 08:31:33;;;;;;;17.20;13.90;;;10.80;65.30;;;;;;5049508;28;20068;-74
2022/03/08 08:33:59;;;;;;;20.90;14.13;;;10.70;62.80;;;;;;5049884;28;20447;-74
2022/03/08 08:36:25;;;;;;;18.73;13.50;;;10.60;60.70;;;;;;5034150;28;20032;-74
2022/03/08 08:38:50;;;;;;;19.75;13.82;;;10.60;60.80;;;;;;5033463;28;20025;-74
2022/03/08 08:41:16;;;;;;;18.85;13.70;;;10.60;60.40;;;;;;5048646;28;20029;-74
2022/03/08 08:43:42;;;;;;;17.83;13.70;;;10.70;61.10;;;;;;5033473;28;20540;-74
2022/03/08 08:46:07;;;;;;;16.35;13.80;;;10.70;62.40;;;;;;5049433;28;20033;-76
2022/03/08 08:48:33;;;;;;;18.52;13.80;;;10.80;63.30;;;;;;5049372;28;20025;-74
2022/03/08 08:50:58;;;;;;;16.30;13.18;;;10.80;63.80;;;;;;5033526;28;20028;-75
2022/03/08 08:53:24;;;;;;;16.10;12.50;;;10.90;63.80;;;;;;5049050;28;20029;-75
2022/03/08 08:55:50;;;;;;;17.63;13.60;;;10.90;64.00;;;;;;5049051;28;20040;-76
2022/03/08 08:58:15;;;;;;;14.75;12.43;;;10.90;64.10;;;;;;5033852;28;20025;-76
2022/03/08 09:00:41;;;;;;;15.25;12.38;;;11.00;64.30;;;;;;5033482;28;20471;-75
2022/03/08 09:03:14;;;;;;;20.13;12.90;;;11.00;64.40;;;;;;5033532;28;20025;-76
2022/03/08 09:05:42;;;;;;;18.73;12.70;;;11.00;64.40;;;;;;5033414;28;20026;-75
2022/03/08 09:08:07;;;;;;;15.70;12.45;;;11.00;64.50;;;;;;5033831;28;20563;-75
2022/03/08 09:10:33;;;;;;;15.40;12.15;;;11.00;64.50;;;;;;5048595;28;20244;-76
2022/03/08 09:12:59;;;;;;;17.67;13.18;;;11.00;64.50;;;;;;5033590;28;20025;-76
2022/03/08 09:15:24;;;;;;;17.67;12.50;;;11.00;64.50;;;;;;5033425;28;20079;-76
2022/03/08 09:17:50;;;;;;;14.13;12.05;;;11.00;64.60;;;;;;5048746;28;20024;-77
2022/03/08 09:20:15;;;;;;;17.33;13.02;;;11.00;64.60;;;;;;5048481;28;20543;-75
2022/03/08 09:22:41;;;;;;;15.38;12.30;;;11.10;65.20;;;;;;5048886;28;20113;-75
2022/03/08 09:25:08;;;;;;;16.90;12.20;;;11.10;64.80;;;;;;5033204;28;20529;-75
2022/03/08 09:27:34;;;;;;;15.38;12.18;;;11.10;64.70;;;;;;5048858;28;20117;-75
2022/03/08 09:30:03;;;;;;;15.70;12.43;;;11.10;64.80;;;;;;5032822;28;20049;-75
2022/03/08 09:32:29;;;;;;;16.25;11.63;;;11.10;65.00;;;;;;5033106;28;20029;-76
2022/03/08 09:34:55;;;;;;;14.80;11.77;;;11.10;65.00;;;;;;5048464;28;20055;-74
2022/03/08 09:37:20;;;;;;;15.07;12.02;;;11.20;65.00;;;;;;5048130;28;20030;-76
2022/03/08 09:39:46;;;;;;;13.75;11.13;;;11.20;65.10;;;;;;5048094;28;20120;-76
2022/03/08 09:42:11;;;;;;;15.57;10.80;;;11.20;65.10;;;;;;5048256;28;20053;-76
2022/03/08 09:44:37;;;;;;;16.13;11.25;;;11.20;65.00;;;;;;5032818;28;20029;-76
2022/03/08 09:47:03;;;;;;;13.57;10.88;;;11.20;65.00;;;;;;5048291;28;20044;-76
2022/03/08 09:49:29;;;;;;;13.73;10.90;;;11.20;65.00;;;;;;5032495;28;20029;-76
2022/03/08 09:51:56;;;;;;;12.68;10.18;;;11.30;65.00;;;;;;5032910;28;20037;-76
2022/03/08 09:54:21;;;;;;;13.25;10.85;;;11.30;64.90;;;;;;5032882;28;20658;-76
2022/03/08 09:56:47;;;;;;;12.90;10.32;;;11.30;64.90;;;;;;5048079;28;20029;-76
2022/03/08 09:59:17;;;;;;;13.00;10.15;;;11.30;64.90;;;;;;5032364;28;20044;-76
2022/03/08 10:01:44;;;;;;;12.93;10.27;;;11.30;65.00;;;;;;5047953;28;20079;-76
2022/03/08 10:04:09;;;;;;;12.10;9.88;;;11.30;64.90;;;;;;5032142;28;20112;-76
2022/03/08 10:06:43;;;;;;;14.02;10.00;;;11.30;64.90;;;;;;5031227;28;20108;-75
2022/03/08 10:09:16;;;;;;;13.40;10.05;;;11.40;65.00;;;;;;5047690;28;20033;-75
2022/03/08 10:11:43;;;;;;;12.65;9.68;;;11.30;64.90;;;;;;5047549;28;20124;-76
2022/03/08 10:14:14;;;;;;;12.60;9.15;;;11.30;64.90;;;;;;5031437;28;20087;-76
2022/03/08 10:16:43;;;;;;;13.77;10.10;;;11.40;65.00;;;;;;5031156;28;20032;-75
2022/03/08 10:19:12;;;;;;;12.98;9.57;;;11.40;65.00;;;;;;5047592;28;20064;-75
2022/03/08 10:21:47;;;;;;;11.60;9.10;;;11.40;65.00;;;;;;5031092;28;20021;-76
2022/03/08 10:24:21;;;;;;;11.70;9.23;;;11.40;65.00;;;;;;5030577;28;20033;-75
2022/03/08 10:26:49;;;;;;;11.20;8.40;;;11.40;65.00;;;;;;5032451;28;20025;-75
2022/03/08 10:29:33;;;;;;;12.43;9.02;;;11.40;64.90;;;;;;5031952;28;20030;-76
2022/03/08 10:32:11;;;;;;;12.18;8.93;;;11.40;64.80;;;;;;5030875;28;20117;-76
2022/03/08 10:34:38;;;;;;;14.68;8.77;;;11.40;64.80;;;;;;5030258;28;20029;-75
2022/03/08 10:37:08;;;;;;;12.05;9.23;;;11.40;64.80;;;;;;5032183;28;20033;-76
2022/03/08 10:39:34;;;;;;;11.70;8.25;;;11.40;64.80;;;;;;5031524;28;20033;-75
2022/03/08 10:42:00;;;;;;;12.77;8.48;;;11.40;64.90;;;;;;5030725;28;20668;-75
2022/03/08 10:44:44;;;;;;;11.57;8.75;;;11.40;64.90;;;;;;5032040;28;20483;-76
2022/03/08 10:47:12;;;;;;;11.63;8.32;;;11.50;64.70;;;;;;5027016;28;20096;-76
2022/03/08 10:49:51;;;;;;;11.45;8.20;;;11.50;64.50;;;;;;5010204;28;20069;-77
2022/03/08 10:52:24;;;;;;;11.70;7.15;;;11.50;64.50;;;;;;5010511;28;20069;-76
2022/03/08 10:54:50;;;;;;;11.40;7.40;;;11.50;64.50;;;;;;5010559;28;20045;-77
2022/03/08 10:57:15;;;;;;;14.02;8.18;;;11.50;64.50;;;;;;5010662;28;20411;-77
2022/03/08 10:59:53;;;;;;;10.35;7.25;;;11.50;64.50;;;;;;5012245;28;20022;-76
2022/03/08 11:02:21;;;;;;;9.88;7.10;;;11.50;64.50;;;;;;5011181;28;20036;-77
2022/03/08 11:04:47;;;;;;;10.63;7.15;;;11.50;64.40;;;;;;5011009;28;20403;-77
2022/03/08 11:07:13;;;;;;;9.63;7.10;;;11.60;64.50;;;;;;5012307;28;20029;-77
2022/03/08 11:09:39;;;;;;;10.50;7.50;;;11.60;64.50;;;;;;5010800;28;20156;-77
2022/03/08 11:12:05;;;;;;;10.48;7.00;;;11.60;64.50;;;;;;5012202;28;20476;-76
2022/03/08 11:14:31;;;;;;;10.30;6.75;;;11.60;64.40;;;;;;5010843;28;20045;-75
2022/03/08 11:16:59;;;;;;;11.20;7.47;;;11.60;64.30;;;;;;5011711;28;20491;-73
2022/03/08 11:19:26;;;;;;;11.85;7.00;;;11.60;64.30;;;;;;5010642;28;20026;-75
2022/03/08 11:21:53;;;;;;;10.63;7.22;;;11.60;64.40;;;;;;5011933;28;20034;-75
2022/03/08 11:24:19;;;;;;;10.73;6.68;;;11.60;64.30;;;;;;5010877;28;20109;-77
2022/03/08 11:26:45;;;;;;;12.52;6.72;;;11.60;64.20;;;;;;5010731;28;20026;-76
2022/03/08 11:29:11;;;;;;;10.18;6.50;;;11.60;64.10;;;;;;5011791;28;20053;-76
2022/03/08 11:31:40;;;;;;;9.20;6.60;;;11.70;64.10;;;;;;5012148;28;20041;-77
2022/03/08 11:34:20;;;;;;;9.30;6.30;;;11.60;64.20;;;;;;5013044;28;20113;-78
2022/03/08 11:37:01;;;;;;;10.98;6.20;;;11.60;64.20;;;;;;5019579;28;20483;-76
2022/03/08 11:39:29;;;;;;;8.35;5.72;;;11.70;64.30;;;;;;5012012;28;20045;-77
2022/03/08 11:41:58;;;;;;;9.75;5.78;;;11.60;64.20;;;;;;5012027;28;20057;-77
2022/03/08 11:44:28;;;;;;;9.05;5.90;;;11.60;64.20;;;;;;5030003;28;20025;-77
2022/03/08 11:47:09;;;;;;;9.05;5.78;;;11.70;64.30;;;;;;5028606;28;20022;-77
2022/03/08 11:49:51;;;;;;;8.63;5.47;;;11.70;64.20;;;;;;5030396;28;20033;-77
2022/03/08 11:52:19;;;;;;;8.98;5.40;;;11.70;64.20;;;;;;5029475;28;20044;-77
2022/03/08 11:54:58;;;;;;;8.13;5.50;;;11.70;64.20;;;;;;5031437;28;20522;-77
2022/03/08 11:57:49;;;;;;;9.07;4.88;;;11.70;64.30;;;;;;5030370;28;20555;-77
2022/03/08 12:00:27;;;;;;;8.52;5.25;;;11.70;64.30;;;;;;5032412;28;20025;-76
2022/03/08 12:02:56;;;;;;;7.97;5.13;;;11.60;64.30;;;;;;5033664;28;20505;-77
2022/03/08 12:06:04;;;;;;;7.97;4.88;;;11.70;64.30;;;;;;5035136;28;20034;-77
2022/03/08 12:08:32;;;;;;;7.40;4.90;;;11.60;64.30;;;;;;5031838;28;20041;-77
2022/03/08 12:11:03;;;;;;;8.07;4.97;;;11.70;64.30;;;;;;5033445;28;20017;-76
2022/03/08 12:13:31;;;;;;;8.77;4.90;;;11.70;64.30;;;;;;5034920;28;20026;-76
2022/03/08 12:16:08;;;;;;;7.13;4.75;;;11.70;64.30;;;;;;5034809;28;20022;-77
2022/03/08 12:18:37;;;;;;;7.88;4.40;;;11.70;64.40;;;;;;5033568;28;20034;-77
2022/03/08 12:21:15;;;;;;;7.97;4.50;;;11.60;64.40;;;;;;5033317;28;20033;-77
2022/03/08 12:24:05;;;;;;;7.40;4.47;;;11.60;64.60;;;;;;5033521;28;20025;-77
2022/03/08 12:26:50;;;;;;;6.53;3.90;;;11.60;64.60;;;;;;5033758;28;20506;-77
2022/03/08 12:29:16;;;;;;;6.72;4.03;;;11.60;64.60;;;;;;5032485;28;20032;-77
2022/03/08 12:32:04;;;;;;;7.90;4.05;;;11.60;64.60;;;;;;5033138;28;20091;-77
2022/03/08 12:34:33;;;;;;;7.22;4.15;;;11.60;64.50;;;;;;5033184;28;20101;-76